createdAt,value
2018-08-18T00:00:55.878Z,99641.16
2018-08-18T00:03:25.571Z,99645.13
2018-08-18T00:05:55.092Z,99649.53
2018-08-18T00:08:24.692Z,99644.64
2018-08-18T00:10:54.303Z,99647.34
2018-08-18T00:13:23.808Z,99644.41
2018-08-18T00:15:53.374Z,99647.08
2018-08-18T00:18:22.923Z,99649.36
2018-08-18T00:20:52.483Z,99648.16
2018-08-18T00:23:22.084Z,99642.80
2018-08-18T00:25:51.560Z,99647.44
2018-08-18T00:28:24.063Z,99648.64
2018-08-18T00:30:54.055Z,99640.25
2018-08-18T00:33:23.791Z,99642.19
2018-08-18T00:35:53.311Z,99644.89
2018-08-18T00:38:23.058Z,99636.25
2018-08-18T00:40:53.102Z,99639.10
2018-08-18T00:43:22.732Z,99629.52
2018-08-18T00:45:52.439Z,99630.31
2018-08-18T00:48:22.684Z,99630.59
2018-08-18T00:50:52.440Z,99638.53
2018-08-18T00:53:21.969Z,99637.94
2018-08-18T00:55:51.532Z,99639.95
2018-08-18T00:58:27.029Z,99638.95
2018-08-18T01:01:01.707Z,99634.58
2018-08-18T01:03:32.895Z,99632.03
2018-08-18T01:06:34.535Z,99623.73
2018-08-18T01:09:06.275Z,99625.13
2018-08-18T01:11:36.684Z,99629.50
2018-08-18T01:14:12.787Z,99627.41
2018-08-18T01:16:49.200Z,99623.12
2018-08-18T01:19:20.843Z,99621.74
2018-08-18T01:21:55.364Z,99623.93
2018-08-18T01:24:25.142Z,99633.75
2018-08-18T01:26:54.763Z,99627.95
2018-08-18T01:29:24.369Z,99632.36
2018-08-18T01:31:53.920Z,99626.67
2018-08-18T01:34:23.414Z,99631.31
2018-08-18T01:36:52.956Z,99626.55
2018-08-18T01:39:22.467Z,99620.95
2018-08-18T01:41:51.992Z,99618.50
2018-08-18T01:44:23.910Z,99617.95
2018-08-18T01:46:54.287Z,99621.03
2018-08-18T01:49:30.203Z,99632.55
2018-08-18T01:52:02.053Z,99627.83
2018-08-18T01:54:31.820Z,99627.05
2018-08-18T01:57:07.534Z,99613.05
2018-08-18T01:59:37.944Z,99616.78
2018-08-18T02:02:13.643Z,99614.75
2018-08-18T02:04:43.823Z,99611.59
2018-08-18T02:07:19.052Z,99609.17
2018-08-18T02:09:48.654Z,99611.44
2018-08-18T02:12:18.187Z,99613.86
2018-08-18T02:14:47.781Z,99609.33
2018-08-18T02:17:23.254Z,99610.37
2018-08-18T02:19:53.185Z,99620.53
2018-08-18T02:22:23.478Z,99616.70
2018-08-18T02:24:53.120Z,99620.86
2018-08-18T02:27:22.729Z,99618.78
2018-08-18T02:30:03.816Z,99620.01
2018-08-18T02:32:35.616Z,99621.05
2018-08-18T02:35:05.936Z,99619.22
2018-08-18T02:37:35.596Z,99620.09
2018-08-18T02:40:07.839Z,99636.09
2018-08-18T02:42:37.495Z,99636.36
2018-08-18T02:45:08.127Z,99639.88
2018-08-18T02:47:37.776Z,99637.12
2018-08-18T02:50:08.300Z,99639.84
2018-08-18T02:52:37.907Z,99644.53
2018-08-18T02:55:09.545Z,99642.77
2018-08-18T02:57:43.940Z,99643.91
2018-08-18T03:00:22.949Z,99647.25
2018-08-18T03:02:52.503Z,99651.12
2018-08-18T03:05:22.020Z,99642.72
2018-08-18T03:07:52.559Z,99648.09
2018-08-18T03:10:23.281Z,99647.44
2018-08-18T03:12:56.724Z,99642.15
2018-08-18T03:16:04.820Z,99654.88
2018-08-18T03:18:55.771Z,99655.84
2018-08-18T03:21:31.007Z,99657.83
2018-08-18T03:24:23.863Z,99657.26
2018-08-18T03:26:56.180Z,99649.97
2018-08-18T03:29:26.850Z,99658.52
2018-08-18T03:31:56.675Z,99666.11
2018-08-18T03:34:26.244Z,99670.88
2018-08-18T03:36:56.811Z,99673.20
2018-08-18T03:39:31.316Z,99679.06
2018-08-18T03:42:02.086Z,99678.11
2018-08-18T03:44:31.764Z,99679.11
2018-08-18T03:47:01.361Z,99679.92
2018-08-18T03:49:30.868Z,99680.06
2018-08-18T03:52:00.399Z,99682.56
2018-08-18T03:54:29.891Z,99681.63
2018-08-18T03:56:59.512Z,99681.30
2018-08-18T03:59:29.047Z,99681.19
2018-08-18T04:01:59.651Z,99682.68
2018-08-18T04:04:33.412Z,99681.91
2018-08-18T04:07:03.960Z,99681.52
2018-08-18T04:09:35.531Z,99685.70
2018-08-18T04:12:06.443Z,99682.38
2018-08-18T04:14:40.016Z,99685.56
2018-08-18T04:17:20.383Z,99689.50
2018-08-18T04:19:49.991Z,99688.06
2018-08-18T04:22:20.157Z,99696.84
2018-08-18T04:24:50.001Z,99694.98
2018-08-18T04:27:38.016Z,99695.89
2018-08-18T04:30:10.617Z,99695.09
2018-08-18T04:33:00.280Z,99698.44
2018-08-18T04:35:30.723Z,99694.28
2018-08-18T04:38:02.027Z,99693.25
2018-08-18T04:40:31.992Z,99687.95
2018-08-18T04:43:02.002Z,99689.02
2018-08-18T04:45:31.574Z,99691.81
2018-08-18T04:48:01.107Z,99692.78
2018-08-18T04:50:30.789Z,99700.77
2018-08-18T04:53:00.248Z,99696.65
2018-08-18T04:55:29.740Z,99705.83
2018-08-18T04:57:59.355Z,99706.77
2018-08-18T05:00:28.881Z,99710.63
2018-08-18T05:02:59.367Z,99706.95
2018-08-18T05:05:30.862Z,99708.95
2018-08-18T05:08:01.368Z,99711.61
2018-08-18T05:10:31.039Z,99714.07
2018-08-18T05:13:00.678Z,99717.66
2018-08-18T05:15:30.256Z,99714.52
2018-08-18T05:17:59.788Z,99714.80
2018-08-18T05:20:29.344Z,99711.52
2018-08-18T05:23:14.896Z,99721.03
2018-08-18T05:25:44.400Z,99721.23
2018-08-18T05:28:13.959Z,99725.28
2018-08-18T05:30:43.708Z,99720.89
2018-08-18T05:33:13.200Z,99728.04
2018-08-18T05:35:43.123Z,99736.88
2018-08-18T05:38:12.700Z,99744.41
2018-08-18T05:40:42.264Z,99737.97
2018-08-18T05:43:11.747Z,99739.66
2018-08-18T05:45:41.288Z,99747.67
2018-08-18T05:48:10.904Z,99738.75
2018-08-18T05:50:40.560Z,99734.54
2018-08-18T05:53:32.348Z,99738.84
2018-08-18T05:56:02.679Z,99738.62
2018-08-18T05:58:48.234Z,99740.38
2018-08-18T06:01:26.368Z,99735.18
2018-08-18T06:04:01.008Z,99736.31
2018-08-18T06:06:30.623Z,99741.87
2018-08-18T06:09:00.364Z,99735.23
2018-08-18T06:11:29.977Z,99743.39
2018-08-18T06:13:59.515Z,99748.13
2018-08-18T06:16:29.125Z,99748.03
2018-08-18T06:18:58.675Z,99750.42
2018-08-18T06:21:28.285Z,99749.25
2018-08-18T06:23:57.864Z,99748.45
2018-08-18T06:26:27.928Z,99751.00
2018-08-18T06:28:57.940Z,99747.02
2018-08-18T06:31:27.483Z,99751.26
2018-08-18T06:33:57.176Z,99750.84
2018-08-18T06:36:26.827Z,99752.67
2018-08-18T06:38:56.387Z,99668.25
2018-08-18T06:41:26.160Z,99755.83
2018-08-18T06:43:55.693Z,99756.56
2018-08-18T06:46:25.216Z,99763.00
2018-08-18T06:48:54.931Z,99760.41
2018-08-18T06:51:24.455Z,99765.67
2018-08-18T06:53:54.060Z,99757.32
2018-08-18T06:56:23.559Z,99764.19
2018-08-18T06:58:55.815Z,99770.08
2018-08-18T07:01:25.331Z,99772.06
2018-08-18T07:03:54.927Z,99772.70
2018-08-18T07:06:24.461Z,99770.88
2018-08-18T07:08:55.162Z,99764.89
2018-08-18T07:11:24.725Z,99772.87
2018-08-18T07:13:54.280Z,99771.91
2018-08-18T07:16:23.876Z,99780.73
2018-08-18T07:18:53.432Z,99782.38
2018-08-18T07:21:23.061Z,99782.64
2018-08-18T07:23:52.602Z,99777.58
2018-08-18T07:26:22.164Z,99773.14
2018-08-18T07:28:51.799Z,99776.84
2018-08-18T07:31:21.240Z,99784.04
2018-08-18T07:33:50.817Z,99774.73
2018-08-18T07:36:20.331Z,99785.30
2018-08-18T07:38:49.905Z,99775.27
2018-08-18T07:41:20.142Z,99767.81
2018-08-18T07:43:49.712Z,99769.70
2018-08-18T07:46:19.250Z,99767.50
2018-08-18T07:48:48.843Z,99761.09
2018-08-18T07:51:18.488Z,99770.42
2018-08-18T07:53:48.144Z,99763.48
2018-08-18T07:56:17.731Z,99758.70
2018-08-18T07:58:47.262Z,99763.77
2018-08-18T08:01:16.791Z,99760.97
2018-08-18T08:03:46.335Z,99765.06
2018-08-18T08:06:15.883Z,99766.90
2018-08-18T08:08:48.373Z,99755.50
2018-08-18T08:11:17.975Z,99757.37
2018-08-18T08:13:47.522Z,99757.77
2018-08-18T08:16:17.092Z,99758.09
2018-08-18T08:18:46.725Z,99751.77
2018-08-18T08:21:16.296Z,99758.88
2018-08-18T08:23:45.912Z,99761.72
2018-08-18T08:26:15.510Z,99756.46
2018-08-18T08:28:45.158Z,99750.31
2018-08-18T08:31:14.738Z,99746.84
2018-08-18T08:33:44.299Z,99745.07
2018-08-18T08:36:15.513Z,99745.67
2018-08-18T08:38:58.114Z,99745.16
2018-08-18T08:41:29.039Z,99738.02
2018-08-18T08:43:58.683Z,99742.28
2018-08-18T08:46:28.397Z,99740.22
2018-08-18T08:48:59.564Z,99736.16
2018-08-18T08:51:29.313Z,99732.78
2018-08-18T08:53:59.937Z,99734.84
2018-08-18T08:56:34.740Z,99738.82
2018-08-18T08:59:04.683Z,99738.69
2018-08-18T09:01:34.699Z,99736.34
2018-08-18T09:04:05.075Z,99734.66
2018-08-18T09:06:35.891Z,99733.06
2018-08-18T09:09:07.843Z,99736.44
2018-08-18T09:11:37.388Z,99732.21
2018-08-18T09:14:08.436Z,99735.41
2018-08-18T09:16:38.095Z,99735.55
2018-08-18T09:19:07.791Z,99734.86
2018-08-18T09:21:42.359Z,99735.17
2018-08-18T09:24:12.091Z,99737.59
2018-08-18T09:26:46.676Z,99725.64
2018-08-18T09:29:16.264Z,99728.79
2018-08-18T09:31:46.299Z,99724.42
2018-08-18T09:34:16.048Z,99720.50
2018-08-18T09:36:46.543Z,99720.47
2018-08-18T09:39:23.817Z,99723.47
2018-08-18T09:41:53.448Z,99720.61
2018-08-18T09:44:27.184Z,99712.41
2018-08-18T09:46:56.952Z,99714.69
2018-08-18T09:49:26.823Z,99714.68
2018-08-18T09:51:56.452Z,99717.80
2018-08-18T09:54:26.421Z,99713.48
2018-08-18T09:56:56.255Z,99717.91
2018-08-18T09:59:26.397Z,99708.34
2018-08-18T10:01:56.168Z,99705.72
2018-08-18T10:04:25.827Z,99708.54
2018-08-18T10:06:56.022Z,99702.35
2018-08-18T10:09:26.048Z,99708.21
2018-08-18T10:11:55.777Z,99697.11
2018-08-18T10:14:25.419Z,99701.14
2018-08-18T10:16:54.986Z,99701.13
2018-08-18T10:19:24.571Z,99704.27
2018-08-18T10:21:54.077Z,99703.51
2018-08-18T10:24:23.689Z,99696.18
2018-08-18T10:26:58.364Z,99699.02
2018-08-18T10:29:27.908Z,99704.72
2018-08-18T10:31:58.343Z,99692.95
2018-08-18T10:34:32.121Z,99696.79
2018-08-18T10:37:05.508Z,99696.20
2018-08-18T10:39:36.036Z,99687.80
2018-08-18T10:42:14.785Z,99687.16
2018-08-18T10:44:51.214Z,99689.20
2018-08-18T10:47:22.007Z,99688.66
2018-08-18T10:50:02.530Z,99686.63
2018-08-18T10:52:43.342Z,99687.04
2018-08-18T10:55:14.024Z,99681.41
2018-08-18T10:57:54.884Z,99679.20
2018-08-18T11:00:25.324Z,99670.35
2018-08-18T11:02:56.173Z,99673.98
2018-08-18T11:05:26.522Z,99674.78
2018-08-18T11:08:01.531Z,99670.96
2018-08-18T11:10:32.316Z,99668.34
2018-08-18T11:13:02.187Z,99674.16
2018-08-18T11:15:31.788Z,99671.53
2018-08-18T11:18:01.473Z,99609.20
2018-08-18T11:20:32.384Z,99665.87
2018-08-18T11:23:18.408Z,99660.08
2018-08-18T11:25:54.452Z,99665.13
2018-08-18T11:28:24.038Z,99670.77
2018-08-18T11:30:54.417Z,99669.55
2018-08-18T11:33:34.815Z,99663.92
2018-08-18T11:36:05.228Z,99662.30
2018-08-18T11:38:34.904Z,99659.11
2018-08-18T11:41:04.510Z,99657.50
2018-08-18T11:43:38.535Z,99656.68
2018-08-18T11:46:08.307Z,99660.13
2018-08-18T11:48:37.845Z,99664.69
2018-08-18T11:51:07.508Z,99675.32
2018-08-18T11:53:41.919Z,99680.73
2018-08-18T11:56:11.516Z,99681.02
2018-08-18T11:58:41.300Z,99667.89
2018-08-18T12:01:11.029Z,99650.05
2018-08-18T12:03:40.608Z,99644.95
2018-08-18T12:06:10.128Z,99648.23
2018-08-18T12:08:39.663Z,99648.75
2018-08-18T12:11:09.513Z,99646.33
2018-08-18T12:13:42.840Z,99634.27
2018-08-18T12:16:19.243Z,99644.32
2018-08-18T12:18:49.609Z,99642.47
2018-08-18T12:21:19.179Z,99645.92
2018-08-18T12:23:49.389Z,99648.56
2018-08-18T12:26:22.688Z,99642.96
2018-08-18T12:28:55.410Z,99640.80
2018-08-18T12:31:26.144Z,99639.02
2018-08-18T12:33:55.918Z,99634.25
2018-08-18T12:36:25.775Z,99636.52
2018-08-18T12:38:56.619Z,99628.51
2018-08-18T12:41:26.151Z,99636.32
2018-08-18T12:43:57.156Z,99630.91
2018-08-18T12:46:35.573Z,99627.31
2018-08-18T12:49:06.349Z,99627.52
2018-08-18T12:51:35.980Z,99620.67
2018-08-18T12:54:05.828Z,99617.45
2018-08-18T12:56:35.367Z,99620.47
2018-08-18T12:59:05.483Z,99612.84
2018-08-18T13:01:44.283Z,99606.42
2018-08-18T13:04:19.248Z,99613.25
2018-08-18T13:06:50.843Z,99609.66
2018-08-18T13:09:22.658Z,99607.24
2018-08-18T13:11:53.448Z,99601.00
2018-08-18T13:14:30.681Z,99604.40
2018-08-18T13:17:00.239Z,99603.44
2018-08-18T13:19:33.458Z,99603.39
2018-08-18T13:22:03.326Z,99602.39
2018-08-18T13:24:33.198Z,99511.54
2018-08-18T13:27:03.388Z,99590.33
2018-08-18T13:29:33.745Z,99589.72
2018-08-18T13:32:03.327Z,99594.73
2018-08-18T13:34:32.905Z,99590.52
2018-08-18T13:37:02.583Z,99597.28
2018-08-18T13:39:32.155Z,99592.27
2018-08-18T13:42:11.971Z,99590.22
2018-08-18T13:44:41.517Z,99582.17
2018-08-18T13:47:11.017Z,99590.18
2018-08-18T13:49:40.644Z,99599.07
2018-08-18T13:52:10.212Z,99588.65
2018-08-18T13:54:44.620Z,99587.04
2018-08-18T13:57:14.375Z,99595.06
2018-08-18T13:59:44.348Z,99595.44
2018-08-18T14:02:14.931Z,99586.14
2018-08-18T14:04:44.787Z,99587.77
2018-08-18T14:07:14.648Z,99593.84
2018-08-18T14:09:49.799Z,99584.57
2018-08-18T14:12:19.666Z,99584.39
2018-08-18T14:14:49.548Z,99579.98
2018-08-18T14:17:21.004Z,99578.77
2018-08-18T14:19:51.279Z,99587.11
2018-08-18T14:22:22.247Z,99580.14
2018-08-18T14:24:51.804Z,99576.13
2018-08-18T14:27:22.931Z,99584.16
2018-08-18T14:29:52.504Z,99577.27
2018-08-18T14:32:28.518Z,99574.64
2018-08-18T14:35:07.129Z,99583.84
2018-08-18T14:37:40.955Z,99575.42
2018-08-18T14:40:15.229Z,99588.02
2018-08-18T14:42:45.531Z,99580.41
2018-08-18T14:45:16.464Z,99579.95
2018-08-18T14:47:47.041Z,99582.02
2018-08-18T14:50:20.956Z,99578.02
2018-08-18T14:52:50.538Z,99583.25
2018-08-18T14:55:20.126Z,99584.23
2018-08-18T14:57:54.784Z,99587.63
2018-08-18T15:00:24.415Z,99584.17
2018-08-18T15:02:54.007Z,99594.16
2018-08-18T15:05:23.564Z,99586.95
2018-08-18T15:07:59.579Z,99592.97
2018-08-18T15:10:44.188Z,99606.08
2018-08-18T15:13:14.229Z,99592.10
2018-08-18T15:15:43.918Z,99593.81
2018-08-18T15:18:15.220Z,99606.09
2018-08-18T15:20:45.263Z,99595.78
2018-08-18T15:23:15.704Z,99594.38
2018-08-18T15:25:46.067Z,99595.83
2018-08-18T15:28:16.659Z,99602.00
2018-08-18T15:30:53.607Z,99604.77
2018-08-18T15:33:24.618Z,99596.48
2018-08-18T15:35:54.291Z,99595.55
2018-08-18T15:38:54.277Z,99591.91
2018-08-18T15:41:25.146Z,99594.29
2018-08-18T15:43:55.183Z,99595.65
2018-08-18T15:46:24.893Z,99596.21
2018-08-18T15:48:54.465Z,99596.16
2018-08-18T15:51:24.039Z,99598.17
2018-08-18T15:53:55.996Z,99602.47
2018-08-18T15:56:26.550Z,99596.67
2018-08-18T15:58:56.898Z,99604.56
2018-08-18T16:01:27.639Z,99607.53
2018-08-18T16:03:58.155Z,99596.56
2018-08-18T16:06:27.700Z,99598.80
2018-08-18T16:08:57.388Z,99602.47
2018-08-18T16:11:26.926Z,99602.73
2018-08-18T16:13:56.545Z,99602.41
2018-08-18T16:16:26.056Z,99607.09
2018-08-18T16:19:02.371Z,99608.44
2018-08-18T16:21:33.188Z,99611.40
2018-08-18T16:24:02.961Z,99605.08
2018-08-18T16:26:32.473Z,99607.53
2018-08-18T16:29:01.968Z,99608.17
2018-08-18T16:31:31.650Z,99609.97
2018-08-18T16:34:01.157Z,99620.57
2018-08-18T16:36:35.824Z,99619.59
2018-08-18T16:39:05.661Z,99619.17
2018-08-18T16:41:35.179Z,99623.19
2018-08-18T16:44:04.788Z,99627.69
2018-08-18T16:46:34.343Z,99628.31
2018-08-18T16:49:03.996Z,99631.91
2018-08-18T16:51:33.559Z,99632.14
2018-08-18T16:54:18.787Z,99637.66
2018-08-18T16:56:48.372Z,99633.94
2018-08-18T16:59:17.886Z,99638.30
2018-08-18T17:01:47.487Z,99651.20
2018-08-18T17:04:23.104Z,99644.93
2018-08-18T17:06:52.687Z,99656.41
2018-08-18T17:09:39.832Z,99660.97
2018-08-18T17:12:17.692Z,99665.97
2018-08-18T17:14:47.345Z,99662.98
2018-08-18T17:17:16.887Z,99670.48
2018-08-18T17:19:46.431Z,99661.53
2018-08-18T17:22:16.327Z,99668.36
2018-08-18T17:24:45.872Z,99672.94
2018-08-18T17:27:15.472Z,99678.01
2018-08-18T17:29:49.506Z,99673.60
2018-08-18T17:32:19.065Z,99684.38
2018-08-18T17:34:48.690Z,99687.16
2018-08-18T17:37:18.195Z,99690.69
2018-08-18T17:39:47.751Z,99690.23
2018-08-18T17:42:17.329Z,99690.45
2018-08-18T17:44:47.004Z,99700.78
2018-08-18T17:47:16.588Z,99702.48
2018-08-18T17:49:51.252Z,99701.38
2018-08-18T17:52:20.815Z,99710.87
2018-08-18T17:55:05.245Z,99711.70
2018-08-18T17:57:35.500Z,99708.58
2018-08-18T18:00:13.112Z,99706.67
2018-08-18T18:02:47.822Z,99722.94
2018-08-18T18:05:21.590Z,99729.02
2018-08-18T18:07:56.514Z,99730.45
2018-08-18T18:10:28.399Z,99735.19
2018-08-18T18:12:58.027Z,99742.93
2018-08-18T18:15:43.549Z,99741.78
2018-08-18T18:18:14.863Z,99745.94
2018-08-18T18:20:46.079Z,99746.31
2018-08-18T18:23:16.126Z,99756.08
2018-08-18T18:25:45.764Z,99753.78
2018-08-18T18:28:15.398Z,99753.80
2018-08-18T18:30:45.008Z,99751.75
2018-08-18T18:33:14.607Z,99752.09
2018-08-18T18:35:44.149Z,99755.23
2018-08-18T18:38:13.728Z,99763.94
2018-08-18T18:40:44.646Z,99755.02
2018-08-18T18:43:14.143Z,99758.95
2018-08-18T18:45:43.826Z,99760.80
2018-08-18T18:48:14.335Z,99763.59
2018-08-18T18:50:47.543Z,99773.13
2018-08-18T18:53:17.275Z,99776.16
2018-08-18T18:55:51.902Z,99778.86
2018-08-18T18:58:21.612Z,99781.88
2018-08-18T19:01:00.389Z,99771.63
2018-08-18T19:03:30.308Z,99778.94
2018-08-18T19:05:59.907Z,99773.73
2018-08-18T19:08:29.420Z,99782.09
2018-08-18T19:10:59.070Z,99785.11
2018-08-18T19:13:28.674Z,99790.31
2018-08-18T19:15:58.367Z,99793.69
2018-08-18T19:18:27.851Z,99797.66
2018-08-18T19:20:57.423Z,99806.94
2018-08-18T19:23:27.078Z,99800.89
2018-08-18T19:25:56.680Z,99799.95
2018-08-18T19:28:26.358Z,99799.50
2018-08-18T19:30:55.932Z,99802.04
2018-08-18T19:33:25.424Z,99800.66
2018-08-18T19:35:55.025Z,99801.71
2018-08-18T19:38:24.676Z,99800.91
2018-08-18T19:40:55.068Z,99800.78
2018-08-18T19:43:27.825Z,99798.84
2018-08-18T19:45:57.699Z,99806.73
2018-08-18T19:48:28.198Z,99807.75
2018-08-18T19:51:04.129Z,99812.85
2018-08-18T19:53:34.959Z,99816.09
2018-08-18T19:56:08.715Z,99813.69
2018-08-18T19:58:38.342Z,99806.48
2018-08-18T20:01:08.016Z,99813.52
2018-08-18T20:03:37.564Z,99814.44
2018-08-18T20:06:16.156Z,99820.11
2018-08-18T20:08:45.718Z,99823.12
2018-08-18T20:11:15.355Z,99825.91
2018-08-18T20:13:44.857Z,99828.45
2018-08-18T20:16:14.456Z,99838.16
2018-08-18T20:18:43.992Z,99847.24
2018-08-18T20:21:13.523Z,99843.52
2018-08-18T20:23:43.075Z,99848.97
2018-08-18T20:26:12.567Z,99853.46
2018-08-18T20:28:42.091Z,99850.01
2018-08-18T20:31:11.691Z,99841.37
2018-08-18T20:33:41.284Z,99837.19
2018-08-18T20:36:10.767Z,99839.04
2018-08-18T20:38:46.775Z,99840.55
2018-08-18T20:41:16.372Z,99842.86
2018-08-18T20:43:48.360Z,99841.02
2018-08-18T20:46:17.965Z,99848.31
2018-08-18T20:48:47.486Z,99852.94
2018-08-18T20:51:21.099Z,99851.49
2018-08-18T20:53:50.664Z,99862.22
2018-08-18T20:56:20.181Z,99851.41
2018-08-18T20:58:49.820Z,99854.77
2018-08-18T21:01:19.331Z,99857.30
2018-08-18T21:03:50.620Z,99859.80
2018-08-18T21:06:20.519Z,99866.97
2018-08-18T21:08:50.068Z,99767.38
2018-08-18T21:11:19.639Z,99875.06
2018-08-18T21:13:50.560Z,99867.86
2018-08-18T21:16:21.064Z,99870.20
2018-08-18T21:18:50.636Z,99870.20
2018-08-18T21:21:33.131Z,99875.64
2018-08-18T21:24:02.783Z,99881.09
2018-08-18T21:26:32.396Z,99880.11
2018-08-18T21:29:01.974Z,99883.73
2018-08-18T21:31:33.768Z,99878.86
2018-08-18T21:34:04.616Z,99873.75
2018-08-18T21:36:34.367Z,99874.30
2018-08-18T21:39:07.004Z,99872.77
2018-08-18T21:41:38.474Z,99873.17
2018-08-18T21:44:09.757Z,99879.27
2018-08-18T21:46:39.629Z,99874.19
2018-08-18T21:49:09.799Z,99876.92
2018-08-18T21:51:39.359Z,99876.63
2018-08-18T21:54:08.868Z,99884.00
2018-08-18T21:56:39.716Z,99882.84
2018-08-18T21:59:10.645Z,99882.64
2018-08-18T22:01:40.311Z,99882.54
2018-08-18T22:04:10.236Z,99883.75
2018-08-18T22:06:39.752Z,99886.11
2018-08-18T22:09:21.379Z,99881.63
2018-08-18T22:11:51.272Z,99880.92
2018-08-18T22:14:20.968Z,99883.25
2018-08-18T22:16:55.681Z,99872.22
2018-08-18T22:19:25.587Z,99870.45
2018-08-18T22:21:55.203Z,99870.77
2018-08-18T22:24:24.806Z,99885.32
2018-08-18T22:26:54.387Z,99883.80
2018-08-18T22:29:24.821Z,99883.02
2018-08-18T22:31:54.556Z,99885.84
2018-08-18T22:34:24.129Z,99883.91
2018-08-18T22:37:01.683Z,99888.82
2018-08-18T22:39:31.400Z,99884.41
2018-08-18T22:42:00.900Z,99891.41
2018-08-18T22:44:30.457Z,99892.45
2018-08-18T22:47:00.444Z,99899.81
2018-08-18T22:49:29.965Z,99878.20
2018-08-18T22:51:59.544Z,99903.88
2018-08-18T22:54:29.043Z,99903.39
2018-08-18T22:57:02.690Z,99900.37
2018-08-18T22:59:32.467Z,99891.34
2018-08-18T23:02:02.455Z,99893.84
2018-08-18T23:04:36.754Z,99889.52
2018-08-18T23:07:07.414Z,99896.78
2018-08-18T23:09:36.904Z,99890.34
2018-08-18T23:12:07.630Z,99885.70
2018-08-18T23:14:38.311Z,99884.14
2018-08-18T23:17:09.423Z,99888.97
2018-08-18T23:19:39.058Z,99885.85
2018-08-18T23:22:18.308Z,99885.53
2018-08-18T23:24:47.839Z,99884.15
2018-08-18T23:27:17.388Z,99887.91
2018-08-18T23:29:47.018Z,99892.78
2018-08-18T23:32:22.496Z,99893.53
2018-08-18T23:34:54.935Z,99887.81
2018-08-18T23:37:24.447Z,99879.10
2018-08-18T23:39:56.520Z,99880.48
2018-08-18T23:42:26.781Z,99879.33
2018-08-18T23:44:56.383Z,99880.30
2018-08-18T23:47:25.939Z,99879.23
2018-08-18T23:49:55.664Z,99888.69
2018-08-18T23:52:25.267Z,99888.91
2018-08-18T23:54:54.939Z,99888.86
2018-08-18T23:57:24.536Z,99892.70
2018-08-18T23:59:54.128Z,99897.60
